sensor_id;sensor_type;location;lat;lon;timestamp;pressure;altitude;pressure_sealevel;temperature;humidity
69848;BME280;57143;55.940;37.496;2023-01-29T00:02:02;98632.03;;;-2.70;100.00
69848;BME280;57143;55.940;37.496;2023-01-29T00:04:30;98630.38;;;-2.71;100.00
69848;BME280;57143;55.940;37.496;2023-01-29T00:06:57;98632.72;;;-2.68;100.00
69848;BME280;57143;55.940;37.496;2023-01-29T00:09:26;98631.53;;;-2.66;100.00
69848;BME280;57143;55.940;37.496;2023-01-29T00:11:54;98554.31;;;-3.20;100.00
69848;BME280;57143;55.940;37.496;2023-01-29T00:14:21;98632.22;;;-2.64;100.00
69848;BME280;57143;55.940;37.496;2023-01-29T00:16:48;98642.81;;;-2.64;100.00
69848;BME280;57143;55.940;37.496;2023-01-29T00:19:15;98651.94;;;-2.66;100.00
69848;BME280;57143;55.940;37.496;2023-01-29T00:21:42;98663.84;;;-2.70;100.00
69848;BME280;57143;55.940;37.496;2023-01-29T00:24:09;98651.72;;;-2.81;100.00
69848;BME280;57143;55.940;37.496;2023-01-29T00:26:38;98651.19;;;-2.84;100.00
69848;BME280;57143;55.940;37.496;2023-01-29T00:29:07;98670.00;;;-2.70;100.00
69848;BME280;57143;55.940;37.496;2023-01-29T00:31:34;98654.84;;;-2.85;100.00
69848;BME280;57143;55.940;37.496;2023-01-29T00:34:01;98674.38;;;-2.86;100.00
69848;BME280;57143;55.940;37.496;2023-01-29T00:36:28;98677.69;;;-2.84;100.00
69848;BME280;57143;55.940;37.496;2023-01-29T00:38:56;98683.81;;;-2.92;100.00
69848;BME280;57143;55.940;37.496;2023-01-29T00:41:26;98634.63;;;-3.20;100.00
69848;BME280;57143;55.940;37.496;2023-01-29T00:44:13;98664.53;;;-3.02;100.00
69848;BME280;57143;55.940;37.496;2023-01-29T00:47:00;98692.81;;;-2.85;100.00
69848;BME280;57143;55.940;37.496;2023-01-29T00:49:27;98694.28;;;-2.82;100.00
69848;BME280;57143;55.940;37.496;2023-01-29T00:51:55;98683.31;;;-2.95;100.00
69848;BME280;57143;55.940;37.496;2023-01-29T00:54:39;98688.38;;;-3.02;100.00
69848;BME280;57143;55.940;37.496;2023-01-29T00:57:06;98717.66;;;-2.78;100.00
69848;BME280;57143;55.940;37.496;2023-01-29T00:59:35;98666.13;;;-3.09;100.00
69848;BME280;57143;55.940;37.496;2023-01-29T01:02:02;98724.13;;;-2.80;100.00
69848;BME280;57143;55.940;37.496;2023-01-29T01:04:46;98735.25;;;-2.77;100.00
69848;BME280;57143;55.940;37.496;2023-01-29T01:07:14;98751.94;;;-2.84;100.00
69848;BME280;57143;55.940;37.496;2023-01-29T01:09:41;98747.78;;;-2.87;100.00
69848;BME280;57143;55.940;37.496;2023-01-29T01:12:26;98767.31;;;-2.88;100.00
69848;BME280;57143;55.940;37.496;2023-01-29T01:14:55;98758.94;;;-2.75;100.00
69848;BME280;57143;55.940;37.496;2023-01-29T01:17:22;98772.72;;;-2.72;100.00
69848;BME280;57143;55.940;37.496;2023-01-29T01:19:49;98776.50;;;-2.74;100.00
69848;BME280;57143;55.940;37.496;2023-01-29T01:22:16;98767.75;;;-2.75;100.00
69848;BME280;57143;55.940;37.496;2023-01-29T01:24:43;98771.28;;;-2.66;100.00
69848;BME280;57143;55.940;37.496;2023-01-29T01:27:11;98777.56;;;-2.67;100.00
69848;BME280;57143;55.940;37.496;2023-01-29T01:29:38;98780.84;;;-2.73;100.00
69848;BME280;57143;55.940;37.496;2023-01-29T01:32:07;98760.56;;;-2.82;100.00
69848;BME280;57143;55.940;37.496;2023-01-29T01:34:34;98774.53;;;-2.72;100.00
69848;BME280;57143;55.940;37.496;2023-01-29T01:37:01;98780.72;;;-2.89;100.00
69848;BME280;57143;55.940;37.496;2023-01-29T01:39:29;98789.53;;;-2.89;100.00
69848;BME280;57143;55.940;37.496;2023-01-29T01:41:56;98776.19;;;-2.97;100.00
69848;BME280;57143;55.940;37.496;2023-01-29T01:44:54;98788.00;;;-2.91;100.00
69848;BME280;57143;55.940;37.496;2023-01-29T01:47:28;98772.72;;;-2.97;100.00
69848;BME280;57143;55.940;37.496;2023-01-29T01:49:59;98773.94;;;-2.92;100.00
69848;BME280;57143;55.940;37.496;2023-01-29T01:52:30;98775.31;;;-3.05;100.00
69848;BME280;57143;55.940;37.496;2023-01-29T01:54:58;98733.41;;;-3.27;100.00
69848;BME280;57143;55.940;37.496;2023-01-29T01:57:26;98760.41;;;-3.06;100.00
69848;BME280;57143;55.940;37.496;2023-01-29T01:59:57;98764.88;;;-3.07;100.00
69848;BME280;57143;55.940;37.496;2023-01-29T02:02:39;98758.44;;;-3.04;100.00
69848;BME280;57143;55.940;37.496;2023-01-29T02:05:25;98749.28;;;-3.10;100.00
69848;BME280;57143;55.940;37.496;2023-01-29T02:08:11;98739.00;;;-3.13;100.00
69848;BME280;57143;55.940;37.496;2023-01-29T02:10:59;98742.06;;;-3.00;100.00
69848;BME280;57143;55.940;37.496;2023-01-29T02:13:27;98692.03;;;-3.28;100.00
69848;BME280;57143;55.940;37.496;2023-01-29T02:15:54;98739.22;;;-3.06;100.00
69848;BME280;57143;55.940;37.496;2023-01-29T02:18:22;98738.44;;;-2.99;100.00
69848;BME280;57143;55.940;37.496;2023-01-29T02:21:03;98732.47;;;-3.01;100.00
69848;BME280;57143;55.940;37.496;2023-01-29T02:26:43;98716.75;;;-2.94;100.00
69848;BME280;57143;55.940;37.496;2023-01-29T02:29:20;98689.19;;;-3.09;100.00
69848;BME280;57143;55.940;37.496;2023-01-29T02:31:58;98722.22;;;-2.96;100.00
69848;BME280;57143;55.940;37.496;2023-01-29T02:34:39;98726.06;;;-2.90;100.00
69848;BME280;57143;55.940;37.496;2023-01-29T02:37:33;98709.00;;;-2.88;100.00
69848;BME280;57143;55.940;37.496;2023-01-29T02:40:11;98716.06;;;-2.96;100.00
69848;BME280;57143;55.940;37.496;2023-01-29T02:42:45;98714.59;;;-2.99;100.00
69848;BME280;57143;55.940;37.496;2023-01-29T02:45:19;98706.69;;;-2.83;100.00
69848;BME280;57143;55.940;37.496;2023-01-29T02:47:54;98704.34;;;-2.94;100.00
69848;BME280;57143;55.940;37.496;2023-01-29T02:50:29;98712.81;;;-2.90;100.00
69848;BME280;57143;55.940;37.496;2023-01-29T02:53:01;98716.44;;;-2.91;100.00
69848;BME280;57143;55.940;37.496;2023-01-29T02:55:34;98710.72;;;-3.04;100.00
69848;BME280;57143;55.940;37.496;2023-01-29T02:58:10;98708.28;;;-2.98;100.00
69848;BME280;57143;55.940;37.496;2023-01-29T03:00:42;98692.38;;;-2.98;100.00
69848;BME280;57143;55.940;37.496;2023-01-29T03:03:16;98681.75;;;-3.06;100.00
69848;BME280;57143;55.940;37.496;2023-01-29T03:05:48;98692.22;;;-2.96;100.00
69848;BME280;57143;55.940;37.496;2023-01-29T03:08:23;98687.09;;;-2.98;100.00
69848;BME280;57143;55.940;37.496;2023-01-29T03:11:03;98699.13;;;-3.03;100.00
69848;BME280;57143;55.940;37.496;2023-01-29T03:13:40;98619.47;;;-3.35;100.00
69848;BME280;57143;55.940;37.496;2023-01-29T03:16:16;98671.66;;;-3.02;100.00
69848;BME280;57143;55.940;37.496;2023-01-29T03:18:49;98677.16;;;-2.96;100.00
69848;BME280;57143;55.940;37.496;2023-01-29T03:21:24;98646.41;;;-3.14;100.00
69848;BME280;57143;55.940;37.496;2023-01-29T03:24:12;98605.03;;;-3.41;100.00
69848;BME280;57143;55.940;37.496;2023-01-29T03:27:01;98658.66;;;-3.13;100.00
69848;BME280;57143;55.940;37.496;2023-01-29T03:29:50;98650.41;;;-3.10;100.00
69848;BME280;57143;55.940;37.496;2023-01-29T03:32:39;98643.47;;;-3.03;100.00
69848;BME280;57143;55.940;37.496;2023-01-29T03:35:12;98646.13;;;-3.03;100.00
69848;BME280;57143;55.940;37.496;2023-01-29T03:37:46;98623.50;;;-3.23;100.00
69848;BME280;57143;55.940;37.496;2023-01-29T03:40:14;98622.78;;;-3.00;100.00
69848;BME280;57143;55.940;37.496;2023-01-29T03:42:57;98608.31;;;-3.13;100.00
69848;BME280;57143;55.940;37.496;2023-01-29T03:45:31;98610.53;;;-3.01;100.00
69848;BME280;57143;55.940;37.496;2023-01-29T03:48:05;98625.94;;;-3.04;100.00
69848;BME280;57143;55.940;37.496;2023-01-29T03:50:38;98601.56;;;-3.08;100.00
69848;BME280;57143;55.940;37.496;2023-01-29T03:53:17;98609.38;;;-2.98;100.00
69848;BME280;57143;55.940;37.496;2023-01-29T03:55:52;98593.81;;;-3.01;100.00
69848;BME280;57143;55.940;37.496;2023-01-29T03:58:25;98607.59;;;-2.90;100.00
69848;BME280;57143;55.940;37.496;2023-01-29T04:00:58;98606.28;;;-2.86;100.00
69848;BME280;57143;55.940;37.496;2023-01-29T04:03:33;98601.50;;;-2.82;100.00
69848;BME280;57143;55.940;37.496;2023-01-29T04:06:07;98609.44;;;-2.90;100.00
69848;BME280;57143;55.940;37.496;2023-01-29T04:08:38;98609.44;;;-2.82;100.00
69848;BME280;57143;55.940;37.496;2023-01-29T04:11:11;98581.16;;;-3.15;100.00
69848;BME280;57143;55.940;37.496;2023-01-29T04:13:40;98610.72;;;-2.94;100.00
69848;BME280;57143;55.940;37.496;2023-01-29T04:16:12;98589.03;;;-2.90;100.00
69848;BME280;57143;55.940;37.496;2023-01-29T04:18:48;98598.16;;;-2.92;100.00
69848;BME280;57143;55.940;37.496;2023-01-29T04:21:16;98526.09;;;-3.37;100.00
69848;BME280;57143;55.940;37.496;2023-01-29T04:23:44;98578.56;;;-3.07;100.00
69848;BME280;57143;55.940;37.496;2023-01-29T04:26:41;98595.97;;;-2.97;100.00
69848;BME280;57143;55.940;37.496;2023-01-29T04:29:24;98488.75;;;-3.60;100.00
69848;BME280;57143;55.940;37.496;2023-01-29T04:32:04;98574.31;;;-2.84;100.00
69848;BME280;57143;55.940;37.496;2023-01-29T04:34:48;98541.91;;;-3.12;100.00
69848;BME280;57143;55.940;37.496;2023-01-29T04:37:28;98537.28;;;-3.18;100.00
69848;BME280;57143;55.940;37.496;2023-01-29T04:40:04;98589.53;;;-2.94;100.00
69848;BME280;57143;55.940;37.496;2023-01-29T04:42:43;98578.03;;;-3.11;100.00
69848;BME280;57143;55.940;37.496;2023-01-29T04:45:19;98584.06;;;-2.93;100.00
69848;BME280;57143;55.940;37.496;2023-01-29T04:47:57;98583.19;;;-3.01;100.00
69848;BME280;57143;55.940;37.496;2023-01-29T04:50:34;98568.50;;;-2.96;100.00
69848;BME280;57143;55.940;37.496;2023-01-29T04:53:09;98566.97;;;-2.98;100.00
69848;BME280;57143;55.940;37.496;2023-01-29T04:55:41;98536.75;;;-3.21;100.00
69848;BME280;57143;55.940;37.496;2023-01-29T04:58:11;98571.31;;;-2.89;100.00
69848;BME280;57143;55.940;37.496;2023-01-29T05:00:42;98577.81;;;-2.84;100.00
69848;BME280;57143;55.940;37.496;2023-01-29T05:03:13;98546.25;;;-3.03;100.00
69848;BME280;57143;55.940;37.496;2023-01-29T05:05:45;98406.72;;;-3.94;100.00
69848;BME280;57143;55.940;37.496;2023-01-29T05:08:17;98566.44;;;-3.10;100.00
69848;BME280;57143;55.940;37.496;2023-01-29T05:10:47;98578.41;;;-2.98;100.00
69848;BME280;57143;55.940;37.496;2023-01-29T05:13:14;98582.94;;;-2.82;100.00
69848;BME280;57143;55.940;37.496;2023-01-29T05:15:45;98577.97;;;-2.85;100.00
69848;BME280;57143;55.940;37.496;2023-01-29T05:18:16;98574.00;;;-2.81;100.00
69848;BME280;57143;55.940;37.496;2023-01-29T05:20:46;98546.63;;;-2.98;100.00
69848;BME280;57143;55.940;37.496;2023-01-29T05:23:15;98585.66;;;-2.66;100.00
69848;BME280;57143;55.940;37.496;2023-01-29T05:25:42;98584.81;;;-2.75;100.00
69848;BME280;57143;55.940;37.496;2023-01-29T05:28:10;98580.47;;;-2.84;100.00
69848;BME280;57143;55.940;37.496;2023-01-29T05:30:42;98591.56;;;-2.80;100.00
69848;BME280;57143;55.940;37.496;2023-01-29T05:33:12;98585.94;;;-2.77;100.00
69848;BME280;57143;55.940;37.496;2023-01-29T05:35:41;98597.72;;;-2.80;100.00
69848;BME280;57143;55.940;37.496;2023-01-29T05:38:10;98603.47;;;-2.84;100.00
69848;BME280;57143;55.940;37.496;2023-01-29T05:40:37;98594.56;;;-2.75;100.00
69848;BME280;57143;55.940;37.496;2023-01-29T05:43:05;98602.34;;;-2.74;100.00
69848;BME280;57143;55.940;37.496;2023-01-29T05:45:38;98597.03;;;-2.82;100.00
69848;BME280;57143;55.940;37.496;2023-01-29T05:48:05;98604.69;;;-2.71;100.00
69848;BME280;57143;55.940;37.496;2023-01-29T05:50:35;98586.59;;;-2.83;100.00
69848;BME280;57143;55.940;37.496;2023-01-29T05:53:02;98609.28;;;-2.81;100.00
69848;BME280;57143;55.940;37.496;2023-01-29T05:55:34;98621.50;;;-2.96;100.00
69848;BME280;57143;55.940;37.496;2023-01-29T05:58:01;98613.88;;;-2.99;100.00
69848;BME280;57143;55.940;37.496;2023-01-29T06:00:30;98612.19;;;-3.00;100.00
69848;BME280;57143;55.940;37.496;2023-01-29T06:02:57;98609.72;;;-2.93;100.00
69848;BME280;57143;55.940;37.496;2023-01-29T06:05:28;98602.28;;;-2.98;100.00
69848;BME280;57143;55.940;37.496;2023-01-29T06:07:55;98586.72;;;-2.93;100.00
69848;BME280;57143;55.940;37.496;2023-01-29T06:10:22;98536.28;;;-3.17;100.00
69848;BME280;57143;55.940;37.496;2023-01-29T06:12:51;98572.31;;;-2.90;100.00
69848;BME280;57143;55.940;37.496;2023-01-29T06:15:18;98578.44;;;-2.90;100.00
69848;BME280;57143;55.940;37.496;2023-01-29T06:17:45;98576.78;;;-2.91;100.00
69848;BME280;57143;55.940;37.496;2023-01-29T06:20:13;98578.31;;;-2.88;100.00
69848;BME280;57143;55.940;37.496;2023-01-29T06:22:40;98585.75;;;-2.84;100.00
69848;BME280;57143;55.940;37.496;2023-01-29T06:25:10;98582.94;;;-2.82;100.00
69848;BME280;57143;55.940;37.496;2023-01-29T06:27:38;98586.38;;;-2.90;100.00
69848;BME280;57143;55.940;37.496;2023-01-29T06:30:10;98590.06;;;-2.83;100.00
69848;BME280;57143;55.940;37.496;2023-01-29T06:32:38;98563.03;;;-2.86;100.00
69848;BME280;57143;55.940;37.496;2023-01-29T06:35:05;98585.81;;;-2.68;100.00
69848;BME280;57143;55.940;37.496;2023-01-29T06:37:34;98587.13;;;-2.64;100.00
69848;BME280;57143;55.940;37.496;2023-01-29T06:40:01;98584.66;;;-2.65;100.00
69848;BME280;57143;55.940;37.496;2023-01-29T06:42:29;98599.44;;;-2.55;100.00
69848;BME280;57143;55.940;37.496;2023-01-29T06:44:56;98592.13;;;-2.61;100.00
69848;BME280;57143;55.940;37.496;2023-01-29T06:47:26;98601.13;;;-2.46;100.00
69848;BME280;57143;55.940;37.496;2023-01-29T06:49:53;98601.59;;;-2.50;100.00
69848;BME280;57143;55.940;37.496;2023-01-29T06:52:20;98586.47;;;-2.66;100.00
69848;BME280;57143;55.940;37.496;2023-01-29T06:54:47;98612.50;;;-2.61;100.00
69848;BME280;57143;55.940;37.496;2023-01-29T06:57:14;98625.63;;;-2.52;100.00
69848;BME280;57143;55.940;37.496;2023-01-29T06:59:41;98621.50;;;-2.54;100.00
69848;BME280;57143;55.940;37.496;2023-01-29T07:02:08;98606.22;;;-2.60;100.00
69848;BME280;57143;55.940;37.496;2023-01-29T07:04:37;98617.53;;;-2.42;100.00
69848;BME280;57143;55.940;37.496;2023-01-29T07:07:06;98609.25;;;-2.39;100.00
69848;BME280;57143;55.940;37.496;2023-01-29T07:09:39;98612.06;;;-2.33;100.00
69848;BME280;57143;55.940;37.496;2023-01-29T07:12:06;98618.56;;;-2.35;100.00
69848;BME280;57143;55.940;37.496;2023-01-29T07:14:34;98615.69;;;-2.42;100.00
69848;BME280;57143;55.940;37.496;2023-01-29T07:17:01;98599.47;;;-2.39;100.00
69848;BME280;57143;55.940;37.496;2023-01-29T07:19:28;98611.56;;;-2.36;100.00
69848;BME280;57143;55.940;37.496;2023-01-29T07:21:56;98591.34;;;-2.37;100.00
69848;BME280;57143;55.940;37.496;2023-01-29T07:24:26;98592.16;;;-2.45;100.00
69848;BME280;57143;55.940;37.496;2023-01-29T07:26:54;98607.59;;;-2.32;100.00
69848;BME280;57143;55.940;37.496;2023-01-29T07:29:21;98598.97;;;-2.26;100.00
69848;BME280;57143;55.940;37.496;2023-01-29T07:31:48;98601.00;;;-2.28;100.00
69848;BME280;57143;55.940;37.496;2023-01-29T07:34:18;98575.91;;;-2.50;100.00
69848;BME280;57143;55.940;37.496;2023-01-29T07:36:45;98591.69;;;-2.40;100.00
69848;BME280;57143;55.940;37.496;2023-01-29T07:39:13;98598.81;;;-2.33;100.00
69848;BME280;57143;55.940;37.496;2023-01-29T07:41:40;98602.50;;;-2.17;100.00
69848;BME280;57143;55.940;37.496;2023-01-29T07:44:08;98601.50;;;-2.08;100.00
69848;BME280;57143;55.940;37.496;2023-01-29T07:46:35;98595.69;;;-1.96;100.00
69848;BME280;57143;55.940;37.496;2023-01-29T07:49:02;98615.41;;;-1.98;100.00
69848;BME280;57143;55.940;37.496;2023-01-29T07:51:29;98611.97;;;-1.99;100.00
69848;BME280;57143;55.940;37.496;2023-01-29T07:53:59;98613.97;;;-1.85;100.00
69848;BME280;57143;55.940;37.496;2023-01-29T07:56:27;98609.16;;;-1.81;100.00
69848;BME280;57143;55.940;37.496;2023-01-29T07:58:57;98629.69;;;-1.91;100.00
69848;BME280;57143;55.940;37.496;2023-01-29T08:01:24;98634.03;;;-1.82;100.00
69848;BME280;57143;55.940;37.496;2023-01-29T08:03:51;98643.66;;;-1.73;100.00
69848;BME280;57143;55.940;37.496;2023-01-29T08:06:18;98656.25;;;-1.91;100.00
69848;BME280;57143;55.940;37.496;2023-01-29T08:08:48;98662.91;;;-1.79;100.00
69848;BME280;57143;55.940;37.496;2023-01-29T08:11:16;98679.19;;;-1.66;100.00
69848;BME280;57143;55.940;37.496;2023-01-29T08:13:45;98675.16;;;-1.86;100.00
69848;BME280;57143;55.940;37.496;2023-01-29T08:16:12;98705.91;;;-1.68;100.00
69848;BME280;57143;55.940;37.496;2023-01-29T08:18:39;98724.31;;;-1.74;100.00
69848;BME280;57143;55.940;37.496;2023-01-29T08:21:08;98740.41;;;-1.76;100.00
69848;BME280;57143;55.940;37.496;2023-01-29T08:23:37;98728.47;;;-1.64;100.00
69848;BME280;57143;55.940;37.496;2023-01-29T08:26:04;98741.94;;;-1.65;100.00
69848;BME280;57143;55.940;37.496;2023-01-29T08:28:32;98730.66;;;-1.59;100.00
69848;BME280;57143;55.940;37.496;2023-01-29T08:31:11;98738.97;;;-1.54;100.00
69848;BME280;57143;55.940;37.496;2023-01-29T08:33:38;98740.09;;;-1.65;100.00
69848;BME280;57143;55.940;37.496;2023-01-29T08:36:06;98762.88;;;-1.54;100.00
69848;BME280;57143;55.940;37.496;2023-01-29T08:38:33;98770.66;;;-1.45;100.00
69848;BME280;57143;55.940;37.496;2023-01-29T08:41:01;98761.72;;;-1.44;100.00
69848;BME280;57143;55.940;37.496;2023-01-29T08:43:28;98772.19;;;-1.42;100.00
69848;BME280;57143;55.940;37.496;2023-01-29T08:45:55;98786.44;;;-1.43;100.00
69848;BME280;57143;55.940;37.496;2023-01-29T08:48:23;98758.19;;;-1.60;100.00
69848;BME280;57143;55.940;37.496;2023-01-29T08:50:55;98775.69;;;-1.34;100.00
69848;BME280;57143;55.940;37.496;2023-01-29T08:53:22;98791.94;;;-1.45;100.00
69848;BME280;57143;55.940;37.496;2023-01-29T08:55:51;98798.75;;;-1.50;100.00
69848;BME280;57143;55.940;37.496;2023-01-29T08:58:23;98789.28;;;-1.61;100.00
69848;BME280;57143;55.940;37.496;2023-01-29T09:00:50;98801.72;;;-1.53;100.00
69848;BME280;57143;55.940;37.496;2023-01-29T09:03:17;98788.78;;;-1.48;100.00
69848;BME280;57143;55.940;37.496;2023-01-29T09:05:48;98749.22;;;-1.75;100.00
69848;BME280;57143;55.940;37.496;2023-01-29T09:08:15;98778.66;;;-1.61;100.00
69848;BME280;57143;55.940;37.496;2023-01-29T09:10:44;98774.16;;;-1.52;100.00
69848;BME280;57143;55.940;37.496;2023-01-29T09:13:12;98768.34;;;-1.48;100.00
69848;BME280;57143;55.940;37.496;2023-01-29T09:15:39;98696.28;;;-1.77;100.00
69848;BME280;57143;55.940;37.496;2023-01-29T09:18:06;98748.25;;;-1.34;100.00
69848;BME280;57143;55.940;37.496;2023-01-29T09:20:40;98762.06;;;-1.31;100.00
69848;BME280;57143;55.940;37.496;2023-01-29T09:23:09;98752.09;;;-1.29;100.00
69848;BME280;57143;55.940;37.496;2023-01-29T09:25:37;98721.38;;;-1.47;100.00
69848;BME280;57143;55.940;37.496;2023-01-29T09:28:04;98765.72;;;-1.32;100.00
69848;BME280;57143;55.940;37.496;2023-01-29T09:30:33;98744.28;;;-1.30;100.00
69848;BME280;57143;55.940;37.496;2023-01-29T09:33:02;98758.75;;;-1.25;100.00
69848;BME280;57143;55.940;37.496;2023-01-29T09:35:29;98761.41;;;-1.25;100.00
69848;BME280;57143;55.940;37.496;2023-01-29T09:37:59;98765.22;;;-1.11;100.00
69848;BME280;57143;55.940;37.496;2023-01-29T09:40:37;98754.25;;;-1.24;100.00
69848;BME280;57143;55.940;37.496;2023-01-29T09:43:15;98751.25;;;-1.29;100.00
69848;BME280;57143;55.940;37.496;2023-01-29T09:45:50;98767.03;;;-1.11;100.00
69848;BME280;57143;55.940;37.496;2023-01-29T09:48:22;98768.19;;;-1.22;100.00
69848;BME280;57143;55.940;37.496;2023-01-29T09:50:52;98751.75;;;-1.09;100.00
69848;BME280;57143;55.940;37.496;2023-01-29T09:53:24;98741.63;;;-1.30;100.00
69848;BME280;57143;55.940;37.496;2023-01-29T09:56:01;98763.72;;;-1.22;100.00
69848;BME280;57143;55.940;37.496;2023-01-29T09:58:33;98750.91;;;-1.34;100.00
69848;BME280;57143;55.940;37.496;2023-01-29T10:01:12;98696.78;;;-1.49;100.00
69848;BME280;57143;55.940;37.496;2023-01-29T10:06:49;98652.78;;;-1.52;100.00
69848;BME280;57143;55.940;37.496;2023-01-29T10:09:53;98705.38;;;-1.07;100.00
69848;BME280;57143;55.940;37.496;2023-01-29T10:12:41;98703.91;;;-1.17;100.00
69848;BME280;57143;55.940;37.496;2023-01-29T10:15:22;98682.59;;;-0.93;100.00
69848;BME280;57143;55.940;37.496;2023-01-29T10:18:07;98701.59;;;-1.12;100.00
69848;BME280;57143;55.940;37.496;2023-01-29T10:20:45;98689.78;;;-1.18;100.00
69848;BME280;57143;55.940;37.496;2023-01-29T10:23:22;98685.59;;;-1.04;100.00
69848;BME280;57143;55.940;37.496;2023-01-29T10:25:51;98676.47;;;-1.02;100.00
69848;BME280;57143;55.940;37.496;2023-01-29T10:28:26;98655.69;;;-0.98;100.00
69848;BME280;57143;55.940;37.496;2023-01-29T10:30:58;98584.66;;;-1.29;100.00
69848;BME280;57143;55.940;37.496;2023-01-29T10:33:30;98634.56;;;-0.92;100.00
69848;BME280;57143;55.940;37.496;2023-01-29T10:36:02;98627.41;;;-0.91;100.00
69848;BME280;57143;55.940;37.496;2023-01-29T10:38:38;98643.34;;;-0.91;100.00
69848;BME280;57143;55.940;37.496;2023-01-29T10:41:37;98652.06;;;-0.67;100.00
69848;BME280;57143;55.940;37.496;2023-01-29T10:44:17;98654.66;;;-0.89;100.00
69848;BME280;57143;55.940;37.496;2023-01-29T10:49:46;98650.16;;;-0.89;100.00
69848;BME280;57143;55.940;37.496;2023-01-29T10:52:25;98663.59;;;-0.82;100.00
69848;BME280;57143;55.940;37.496;2023-01-29T10:55:04;98648.50;;;-0.82;100.00
69848;BME280;57143;55.940;37.496;2023-01-29T10:57:48;98657.75;;;-0.70;100.00
69848;BME280;57143;55.940;37.496;2023-01-29T11:00:21;98629.06;;;-0.90;100.00
69848;BME280;57143;55.940;37.496;2023-01-29T11:02:50;98670.03;;;-0.69;100.00
69848;BME280;57143;55.940;37.496;2023-01-29T11:05:25;98646.88;;;-0.99;100.00
69848;BME280;57143;55.940;37.496;2023-01-29T11:08:02;98675.59;;;-0.94;100.00
69848;BME280;57143;55.940;37.496;2023-01-29T11:10:38;98617.38;;;-1.28;100.00
69848;BME280;57143;55.940;37.496;2023-01-29T11:13:10;98673.13;;;-0.96;100.00
69848;BME280;57143;55.940;37.496;2023-01-29T11:15:41;98676.72;;;-0.81;100.00
69848;BME280;57143;55.940;37.496;2023-01-29T11:18:10;98674.81;;;-0.95;100.00
69848;BME280;57143;55.940;37.496;2023-01-29T11:20:42;98672.88;;;-0.70;100.00
69848;BME280;57143;55.940;37.496;2023-01-29T11:23:25;98652.88;;;-0.97;100.00
69848;BME280;57143;55.940;37.496;2023-01-29T11:25:54;98667.78;;;-0.88;100.00
69848;BME280;57143;55.940;37.496;2023-01-29T11:28:36;98672.81;;;-1.01;100.00
69848;BME280;57143;55.940;37.496;2023-01-29T11:31:14;98643.63;;;-1.25;100.00
69848;BME280;57143;55.940;37.496;2023-01-29T11:33:41;98666.16;;;-1.05;100.00
69848;BME280;57143;55.940;37.496;2023-01-29T11:36:30;98637.94;;;-1.22;100.00
69848;BME280;57143;55.940;37.496;2023-01-29T11:39:19;98631.59;;;-1.05;100.00
69848;BME280;57143;55.940;37.496;2023-01-29T11:41:49;98639.34;;;-0.87;100.00
69848;BME280;57143;55.940;37.496;2023-01-29T11:44:26;98586.16;;;-1.26;100.00
69848;BME280;57143;55.940;37.496;2023-01-29T11:46:55;98582.94;;;-1.13;100.00
69848;BME280;57143;55.940;37.496;2023-01-29T11:49:34;98589.31;;;-0.84;100.00
69848;BME280;57143;55.940;37.496;2023-01-29T11:52:03;98603.13;;;-0.88;100.00
69848;BME280;57143;55.940;37.496;2023-01-29T11:54:38;98596.44;;;-0.76;100.00
69848;BME280;57143;55.940;37.496;2023-01-29T11:57:22;98605.06;;;-0.74;100.00
69848;BME280;57143;55.940;37.496;2023-01-29T11:59:52;98610.47;;;-0.90;100.00
69848;BME280;57143;55.940;37.496;2023-01-29T12:02:36;98592.06;;;-1.08;100.00
69848;BME280;57143;55.940;37.496;2023-01-29T12:05:13;98585.78;;;-1.15;100.00
69848;BME280;57143;55.940;37.496;2023-01-29T12:07:42;98591.50;;;-0.87;100.00
69848;BME280;57143;55.940;37.496;2023-01-29T12:10:31;98597.19;;;-0.98;100.00
69848;BME280;57143;55.940;37.496;2023-01-29T12:13:09;98595.22;;;-1.04;100.00
69848;BME280;57143;55.940;37.496;2023-01-29T12:15:45;98548.25;;;-1.20;100.00
69848;BME280;57143;55.940;37.496;2023-01-29T12:18:19;98591.75;;;-1.13;100.00
69848;BME280;57143;55.940;37.496;2023-01-29T12:20:53;98562.94;;;-1.01;100.00
69848;BME280;57143;55.940;37.496;2023-01-29T12:23:29;98551.03;;;-1.05;100.00
69848;BME280;57143;55.940;37.496;2023-01-29T12:26:03;98549.47;;;-1.00;100.00
69848;BME280;57143;55.940;37.496;2023-01-29T12:28:45;98528.44;;;-1.09;100.00
69848;BME280;57143;55.940;37.496;2023-01-29T12:31:26;98548.28;;;-0.89;100.00
69848;BME280;57143;55.940;37.496;2023-01-29T12:34:03;98550.13;;;-0.90;100.00
69848;BME280;57143;55.940;37.496;2023-01-29T12:36:36;98523.47;;;-1.12;100.00
69848;BME280;57143;55.940;37.496;2023-01-29T12:39:04;98548.69;;;-1.08;100.00
69848;BME280;57143;55.940;37.496;2023-01-29T12:41:36;98551.16;;;-0.99;100.00
69848;BME280;57143;55.940;37.496;2023-01-29T12:44:11;98544.03;;;-0.98;100.00
69848;BME280;57143;55.940;37.496;2023-01-29T12:46:43;98460.84;;;-1.54;100.00
69848;BME280;57143;55.940;37.496;2023-01-29T12:49:17;98552.00;;;-1.06;100.00
69848;BME280;57143;55.940;37.496;2023-01-29T12:51:54;98534.75;;;-1.10;100.00
69848;BME280;57143;55.940;37.496;2023-01-29T12:54:30;98536.22;;;-1.08;100.00
69848;BME280;57143;55.940;37.496;2023-01-29T12:57:01;98513.69;;;-1.20;100.00
69848;BME280;57143;55.940;37.496;2023-01-29T12:59:34;98528.00;;;-1.21;100.00
69848;BME280;57143;55.940;37.496;2023-01-29T13:02:12;98502.25;;;-1.29;100.00
69848;BME280;57143;55.940;37.496;2023-01-29T13:04:47;98453.69;;;-1.45;100.00
69848;BME280;57143;55.940;37.496;2023-01-29T13:07:21;98472.25;;;-1.37;100.00
69848;BME280;57143;55.940;37.496;2023-01-29T13:09:54;98480.34;;;-1.31;100.00
69848;BME280;57143;55.940;37.496;2023-01-29T13:12:23;98463.06;;;-1.35;100.00
69848;BME280;57143;55.940;37.496;2023-01-29T13:14:53;98452.00;;;-1.38;100.00
69848;BME280;57143;55.940;37.496;2023-01-29T13:17:25;98428.94;;;-1.46;100.00